sensor_id;sensor_type;location;lat;lon;timestamp;temperature;humidity
53282;DHT22;39167;52.794;6.892;2023-02-15T00:01:23;3.10;99.90
53282;DHT22;39167;52.794;6.892;2023-02-15T00:03:49;3.50;99.90
53282;DHT22;39167;52.794;6.892;2023-02-15T00:06:15;3.40;99.90
53282;DHT22;39167;52.794;6.892;2023-02-15T00:08:41;3.40;99.90
53282;DHT22;39167;52.794;6.892;2023-02-15T00:11:13;2.40;99.90
53282;DHT22;39167;52.794;6.892;2023-02-15T00:13:39;3.20;99.90
53282;DHT22;39167;52.794;6.892;2023-02-15T00:16:12;2.30;99.90
53282;DHT22;39167;52.794;6.892;2023-02-15T00:18:41;2.40;99.90
53282;DHT22;39167;52.794;6.892;2023-02-15T00:21:08;2.90;99.90
53282;DHT22;39167;52.794;6.892;2023-02-15T00:23:35;2.50;99.90
53282;DHT22;39167;52.794;6.892;2023-02-15T00:26:06;2.30;99.90
53282;DHT22;39167;52.794;6.892;2023-02-15T00:28:32;3.10;99.90
53282;DHT22;39167;52.794;6.892;2023-02-15T00:31:05;2.20;99.90
53282;DHT22;39167;52.794;6.892;2023-02-15T00:33:31;2.20;99.90
53282;DHT22;39167;52.794;6.892;2023-02-15T00:35:58;2.10;99.90
53282;DHT22;39167;52.794;6.892;2023-02-15T00:38:24;2.50;99.90
53282;DHT22;39167;52.794;6.892;2023-02-15T00:40:58;2.80;99.90
53282;DHT22;39167;52.794;6.892;2023-02-15T00:43:24;2.50;99.90
53282;DHT22;39167;52.794;6.892;2023-02-15T00:45:51;2.60;99.90
53282;DHT22;39167;52.794;6.892;2023-02-15T00:48:17;2.80;99.90
53282;DHT22;39167;52.794;6.892;2023-02-15T00:50:46;2.50;99.90
53282;DHT22;39167;52.794;6.892;2023-02-15T00:53:12;3.10;99.90
53282;DHT22;39167;52.794;6.892;2023-02-15T00:55:38;3.00;99.90
53282;DHT22;39167;52.794;6.892;2023-02-15T00:58:06;2.00;99.90
53282;DHT22;39167;52.794;6.892;2023-02-15T01:00:31;2.60;99.90
53282;DHT22;39167;52.794;6.892;2023-02-15T01:02:57;2.30;99.90
53282;DHT22;39167;52.794;6.892;2023-02-15T01:05:23;2.60;99.90
53282;DHT22;39167;52.794;6.892;2023-02-15T01:07:49;1.90;99.90
53282;DHT22;39167;52.794;6.892;2023-02-15T01:10:15;1.90;99.90
53282;DHT22;39167;52.794;6.892;2023-02-15T01:12:41;1.90;99.90
53282;DHT22;39167;52.794;6.892;2023-02-15T01:15:07;2.70;99.90
53282;DHT22;39167;52.794;6.892;2023-02-15T01:17:33;1.80;99.90
53282;DHT22;39167;52.794;6.892;2023-02-15T01:19:59;1.80;99.90
53282;DHT22;39167;52.794;6.892;2023-02-15T01:22:25;1.80;99.90
53282;DHT22;39167;52.794;6.892;2023-02-15T01:24:51;1.80;99.90
53282;DHT22;39167;52.794;6.892;2023-02-15T01:27:16;2.90;99.90
53282;DHT22;39167;52.794;6.892;2023-02-15T01:29:42;1.80;99.90
53282;DHT22;39167;52.794;6.892;2023-02-15T01:32:08;1.70;99.90
53282;DHT22;39167;52.794;6.892;2023-02-15T01:34:34;2.70;99.90
53282;DHT22;39167;52.794;6.892;2023-02-15T01:36:59;3.00;99.90
53282;DHT22;39167;52.794;6.892;2023-02-15T01:39:25;1.60;99.90
53282;DHT22;39167;52.794;6.892;2023-02-15T01:41:51;2.60;99.90
53282;DHT22;39167;52.794;6.892;2023-02-15T01:44:46;2.70;99.90
53282;DHT22;39167;52.794;6.892;2023-02-15T01:47:19;1.70;99.90
53282;DHT22;39167;52.794;6.892;2023-02-15T01:49:47;1.60;99.90
53282;DHT22;39167;52.794;6.892;2023-02-15T01:52:16;1.60;99.90
53282;DHT22;39167;52.794;6.892;2023-02-15T01:54:45;2.40;99.90
53282;DHT22;39167;52.794;6.892;2023-02-15T01:57:15;2.10;99.90
53282;DHT22;39167;52.794;6.892;2023-02-15T01:59:46;2.10;99.90
53282;DHT22;39167;52.794;6.892;2023-02-15T02:02:13;1.90;99.90
53282;DHT22;39167;52.794;6.892;2023-02-15T02:04:50;2.00;99.90
53282;DHT22;39167;52.794;6.892;2023-02-15T02:07:22;1.50;99.90
53282;DHT22;39167;52.794;6.892;2023-02-15T02:09:48;1.40;99.90
53282;DHT22;39167;52.794;6.892;2023-02-15T02:12:16;1.50;99.90
53282;DHT22;39167;52.794;6.892;2023-02-15T02:14:43;1.40;99.90
53282;DHT22;39167;52.794;6.892;2023-02-15T02:20:26;1.40;99.90
53282;DHT22;39167;52.794;6.892;2023-02-15T02:23:10;1.30;99.90
53282;DHT22;39167;52.794;6.892;2023-02-15T02:34:23;1.30;99.90
53282;DHT22;39167;52.794;6.892;2023-02-15T02:37:07;2.10;99.90
53282;DHT22;39167;52.794;6.892;2023-02-15T02:42:40;1.30;99.90
53282;DHT22;39167;52.794;6.892;2023-02-15T02:47:44;1.40;99.90
53282;DHT22;39167;52.794;6.892;2023-02-15T02:50:26;1.20;99.90
53282;DHT22;39167;52.794;6.892;2023-02-15T02:52:54;1.70;99.90
53282;DHT22;39167;52.794;6.892;2023-02-15T02:58:31;1.20;99.90
53282;DHT22;39167;52.794;6.892;2023-02-15T03:01:03;1.20;99.90
53282;DHT22;39167;52.794;6.892;2023-02-15T03:03:43;2.40;99.90
53282;DHT22;39167;52.794;6.892;2023-02-15T03:06:30;1.30;99.90
53282;DHT22;39167;52.794;6.892;2023-02-15T03:09:09;1.10;99.90
53282;DHT22;39167;52.794;6.892;2023-02-15T03:11:43;1.10;99.90
53282;DHT22;39167;52.794;6.892;2023-02-15T03:14:10;1.10;99.90
53282;DHT22;39167;52.794;6.892;2023-02-15T03:16:37;2.10;99.90
53282;DHT22;39167;52.794;6.892;2023-02-15T03:19:13;1.80;99.90
53282;DHT22;39167;52.794;6.892;2023-02-15T03:21:51;2.00;99.90
53282;DHT22;39167;52.794;6.892;2023-02-15T03:24:27;1.00;99.90
53282;DHT22;39167;52.794;6.892;2023-02-15T03:26:55;1.90;99.90
53282;DHT22;39167;52.794;6.892;2023-02-15T03:29:24;2.00;99.90
53282;DHT22;39167;52.794;6.892;2023-02-15T03:31:55;2.00;99.90
53282;DHT22;39167;52.794;6.892;2023-02-15T03:34:23;2.10;99.90
53282;DHT22;39167;52.794;6.892;2023-02-15T03:37:00;1.60;99.90
53282;DHT22;39167;52.794;6.892;2023-02-15T03:39:45;1.50;99.90
53282;DHT22;39167;52.794;6.892;2023-02-15T03:42:31;0.90;99.90
53282;DHT22;39167;52.794;6.892;2023-02-15T03:45:11;0.90;99.90
53282;DHT22;39167;52.794;6.892;2023-02-15T03:47:43;0.90;99.90
53282;DHT22;39167;52.794;6.892;2023-02-15T03:50:28;2.10;99.90
53282;DHT22;39167;52.794;6.892;2023-02-15T03:53:15;0.90;99.90
53282;DHT22;39167;52.794;6.892;2023-02-15T03:55:49;1.90;99.90
53282;DHT22;39167;52.794;6.892;2023-02-15T03:58:15;0.90;99.90
53282;DHT22;39167;52.794;6.892;2023-02-15T04:01:04;1.30;99.90
53282;DHT22;39167;52.794;6.892;2023-02-15T04:03:59;0.80;99.90
53282;DHT22;39167;52.794;6.892;2023-02-15T04:06:26;0.80;99.90
53282;DHT22;39167;52.794;6.892;2023-02-15T04:08:52;1.90;99.90
53282;DHT22;39167;52.794;6.892;2023-02-15T04:11:36;1.70;99.90
53282;DHT22;39167;52.794;6.892;2023-02-15T04:14:01;0.70;99.90
53282;DHT22;39167;52.794;6.892;2023-02-15T04:16:47;1.30;99.90
53282;DHT22;39167;52.794;6.892;2023-02-15T04:19:13;1.30;99.90
53282;DHT22;39167;52.794;6.892;2023-02-15T04:21:57;1.90;99.90
53282;DHT22;39167;52.794;6.892;2023-02-15T04:24:41;1.10;99.90
53282;DHT22;39167;52.794;6.892;2023-02-15T04:27:25;0.60;99.90
53282;DHT22;39167;52.794;6.892;2023-02-15T04:29:51;0.60;99.90
53282;DHT22;39167;52.794;6.892;2023-02-15T04:32:17;0.60;99.90
53282;DHT22;39167;52.794;6.892;2023-02-15T04:34:42;1.50;99.90
53282;DHT22;39167;52.794;6.892;2023-02-15T04:37:08;1.90;99.90
53282;DHT22;39167;52.794;6.892;2023-02-15T04:39:34;0.60;99.90
53282;DHT22;39167;52.794;6.892;2023-02-15T04:41:59;0.60;99.90
53282;DHT22;39167;52.794;6.892;2023-02-15T04:44:25;1.70;99.90
53282;DHT22;39167;52.794;6.892;2023-02-15T04:46:51;1.20;99.90
53282;DHT22;39167;52.794;6.892;2023-02-15T04:49:16;0.50;99.90
53282;DHT22;39167;52.794;6.892;2023-02-15T04:51:42;0.60;99.90
53282;DHT22;39167;52.794;6.892;2023-02-15T04:54:08;0.60;99.90
53282;DHT22;39167;52.794;6.892;2023-02-15T04:56:33;1.90;99.90
53282;DHT22;39167;52.794;6.892;2023-02-15T04:59:00;0.60;99.90
53282;DHT22;39167;52.794;6.892;2023-02-15T05:01:26;1.00;99.90
53282;DHT22;39167;52.794;6.892;2023-02-15T05:03:51;0.60;99.90
53282;DHT22;39167;52.794;6.892;2023-02-15T05:06:17;0.60;99.90
53282;DHT22;39167;52.794;6.892;2023-02-15T05:08:43;0.60;99.90
53282;DHT22;39167;52.794;6.892;2023-02-15T05:11:08;0.60;99.90
53282;DHT22;39167;52.794;6.892;2023-02-15T05:13:34;0.60;99.90
53282;DHT22;39167;52.794;6.892;2023-02-15T05:16:00;1.50;99.90
53282;DHT22;39167;52.794;6.892;2023-02-15T05:18:25;1.80;99.90
53282;DHT22;39167;52.794;6.892;2023-02-15T05:20:51;1.80;99.90
53282;DHT22;39167;52.794;6.892;2023-02-15T05:23:17;1.50;99.90
53282;DHT22;39167;52.794;6.892;2023-02-15T05:25:50;0.60;99.90
53282;DHT22;39167;52.794;6.892;2023-02-15T05:28:36;0.60;99.90
53282;DHT22;39167;52.794;6.892;2023-02-15T05:33:31;1.50;99.90
53282;DHT22;39167;52.794;6.892;2023-02-15T05:35:58;1.10;99.90
53282;DHT22;39167;52.794;6.892;2023-02-15T05:38:23;0.60;99.90
53282;DHT22;39167;52.794;6.892;2023-02-15T05:40:50;1.50;99.90
53282;DHT22;39167;52.794;6.892;2023-02-15T05:43:16;1.30;99.90
53282;DHT22;39167;52.794;6.892;2023-02-15T05:45:50;0.60;99.90
53282;DHT22;39167;52.794;6.892;2023-02-15T05:48:17;1.70;99.90
53282;DHT22;39167;52.794;6.892;2023-02-15T05:50:43;0.60;99.90
53282;DHT22;39167;52.794;6.892;2023-02-15T05:53:09;1.60;99.90
53282;DHT22;39167;52.794;6.892;2023-02-15T05:55:38;1.40;99.90
53282;DHT22;39167;52.794;6.892;2023-02-15T05:58:05;0.70;99.90
53282;DHT22;39167;52.794;6.892;2023-02-15T06:00:30;1.30;99.90
53282;DHT22;39167;52.794;6.892;2023-02-15T06:02:56;1.60;99.90
53282;DHT22;39167;52.794;6.892;2023-02-15T06:05:22;0.60;99.90
53282;DHT22;39167;52.794;6.892;2023-02-15T06:07:47;1.80;99.90
53282;DHT22;39167;52.794;6.892;2023-02-15T06:10:13;0.60;99.90
53282;DHT22;39167;52.794;6.892;2023-02-15T06:12:39;0.60;99.90
53282;DHT22;39167;52.794;6.892;2023-02-15T06:15:05;1.80;99.90
53282;DHT22;39167;52.794;6.892;2023-02-15T06:17:31;0.60;99.90
53282;DHT22;39167;52.794;6.892;2023-02-15T06:19:56;1.90;99.90
53282;DHT22;39167;52.794;6.892;2023-02-15T06:22:22;1.70;99.90
53282;DHT22;39167;52.794;6.892;2023-02-15T06:24:48;0.60;99.90
53282;DHT22;39167;52.794;6.892;2023-02-15T06:27:14;0.60;99.90
53282;DHT22;39167;52.794;6.892;2023-02-15T06:29:39;0.60;99.90
53282;DHT22;39167;52.794;6.892;2023-02-15T06:32:05;1.80;99.90
53282;DHT22;39167;52.794;6.892;2023-02-15T06:34:31;1.40;99.90
53282;DHT22;39167;52.794;6.892;2023-02-15T06:36:57;1.70;99.90
53282;DHT22;39167;52.794;6.892;2023-02-15T06:39:23;1.20;99.90
53282;DHT22;39167;52.794;6.892;2023-02-15T06:41:48;2.00;99.90
53282;DHT22;39167;52.794;6.892;2023-02-15T06:44:14;0.60;99.90
53282;DHT22;39167;52.794;6.892;2023-02-15T06:46:40;0.60;99.90
53282;DHT22;39167;52.794;6.892;2023-02-15T06:49:06;0.60;99.90
53282;DHT22;39167;52.794;6.892;2023-02-15T06:51:31;1.90;99.90
53282;DHT22;39167;52.794;6.892;2023-02-15T06:53:59;1.80;99.90
53282;DHT22;39167;52.794;6.892;2023-02-15T06:56:25;1.90;99.90
53282;DHT22;39167;52.794;6.892;2023-02-15T06:58:51;1.60;99.90
53282;DHT22;39167;52.794;6.892;2023-02-15T07:01:18;1.70;99.90
53282;DHT22;39167;52.794;6.892;2023-02-15T07:03:44;0.70;99.90
53282;DHT22;39167;52.794;6.892;2023-02-15T07:06:10;0.60;99.90
53282;DHT22;39167;52.794;6.892;2023-02-15T07:08:37;0.60;99.90
53282;DHT22;39167;52.794;6.892;2023-02-15T07:11:04;1.40;99.90
53282;DHT22;39167;52.794;6.892;2023-02-15T07:13:49;1.60;99.90
53282;DHT22;39167;52.794;6.892;2023-02-15T07:16:14;1.80;99.90
53282;DHT22;39167;52.794;6.892;2023-02-15T07:18:40;1.60;99.90
53282;DHT22;39167;52.794;6.892;2023-02-15T07:21:06;1.50;99.90
53282;DHT22;39167;52.794;6.892;2023-02-15T07:23:39;1.70;99.90
53282;DHT22;39167;52.794;6.892;2023-02-15T07:26:06;2.00;99.90
53282;DHT22;39167;52.794;6.892;2023-02-15T07:28:34;1.20;99.90
53282;DHT22;39167;52.794;6.892;2023-02-15T07:31:04;2.20;99.90
53282;DHT22;39167;52.794;6.892;2023-02-15T07:33:34;2.10;99.90
53282;DHT22;39167;52.794;6.892;2023-02-15T07:36:02;0.90;99.90
53282;DHT22;39167;52.794;6.892;2023-02-15T07:38:34;1.70;99.90
53282;DHT22;39167;52.794;6.892;2023-02-15T07:41:06;2.10;99.90
53282;DHT22;39167;52.794;6.892;2023-02-15T07:43:38;2.20;99.90
53282;DHT22;39167;52.794;6.892;2023-02-15T07:46:07;2.10;99.90
53282;DHT22;39167;52.794;6.892;2023-02-15T07:48:34;1.20;99.90
53282;DHT22;39167;52.794;6.892;2023-02-15T07:51:02;1.10;99.90
53282;DHT22;39167;52.794;6.892;2023-02-15T07:53:28;2.00;99.90
53282;DHT22;39167;52.794;6.892;2023-02-15T07:55:54;1.10;99.90
53282;DHT22;39167;52.794;6.892;2023-02-15T07:58:23;1.20;99.90
53282;DHT22;39167;52.794;6.892;2023-02-15T08:01:09;1.20;99.90
53282;DHT22;39167;52.794;6.892;2023-02-15T08:03:35;2.10;99.90
53282;DHT22;39167;52.794;6.892;2023-02-15T08:06:00;2.40;99.90
53282;DHT22;39167;52.794;6.892;2023-02-15T08:08:27;2.30;99.90
53282;DHT22;39167;52.794;6.892;2023-02-15T08:11:07;1.40;99.90
53282;DHT22;39167;52.794;6.892;2023-02-15T08:13:53;1.40;99.90
53282;DHT22;39167;52.794;6.892;2023-02-15T08:16:24;1.50;99.90
53282;DHT22;39167;52.794;6.892;2023-02-15T08:18:50;2.70;99.90
53282;DHT22;39167;52.794;6.892;2023-02-15T08:21:16;2.00;99.90
53282;DHT22;39167;52.794;6.892;2023-02-15T08:23:42;2.70;99.90
53282;DHT22;39167;52.794;6.892;2023-02-15T08:26:08;1.60;99.90
53282;DHT22;39167;52.794;6.892;2023-02-15T08:28:33;2.70;99.90
53282;DHT22;39167;52.794;6.892;2023-02-15T08:31:09;2.00;99.90
53282;DHT22;39167;52.794;6.892;2023-02-15T08:33:37;1.90;99.90
53282;DHT22;39167;52.794;6.892;2023-02-15T08:36:05;1.80;99.90
53282;DHT22;39167;52.794;6.892;2023-02-15T08:38:31;1.80;99.90
53282;DHT22;39167;52.794;6.892;2023-02-15T08:40:58;3.00;99.90
53282;DHT22;39167;52.794;6.892;2023-02-15T08:43:24;1.90;99.90
53282;DHT22;39167;52.794;6.892;2023-02-15T08:45:49;3.20;99.90
53282;DHT22;39167;52.794;6.892;2023-02-15T08:48:15;2.90;99.90
53282;DHT22;39167;52.794;6.892;2023-02-15T08:50:41;2.70;99.90
53282;DHT22;39167;52.794;6.892;2023-02-15T08:53:07;1.30;99.90
53282;DHT22;39167;52.794;6.892;2023-02-15T08:55:32;2.20;99.90
53282;DHT22;39167;52.794;6.892;2023-02-15T08:57:58;2.30;99.90
53282;DHT22;39167;52.794;6.892;2023-02-15T09:00:24;3.00;99.90
53282;DHT22;39167;52.794;6.892;2023-02-15T09:02:50;2.40;99.90
53282;DHT22;39167;52.794;6.892;2023-02-15T09:05:16;2.40;99.90
53282;DHT22;39167;52.794;6.892;2023-02-15T09:07:41;3.10;99.90
53282;DHT22;39167;52.794;6.892;2023-02-15T09:10:07;3.50;99.90
53282;DHT22;39167;52.794;6.892;2023-02-15T09:12:33;2.60;99.90
53282;DHT22;39167;52.794;6.892;2023-02-15T09:14:59;3.50;99.90
53282;DHT22;39167;52.794;6.892;2023-02-15T09:17:24;2.80;99.90
53282;DHT22;39167;52.794;6.892;2023-02-15T09:19:50;3.80;99.90
53282;DHT22;39167;52.794;6.892;2023-02-15T09:22:16;2.90;99.90
53282;DHT22;39167;52.794;6.892;2023-02-15T09:24:42;3.60;99.90
53282;DHT22;39167;52.794;6.892;2023-02-15T09:27:07;3.00;99.90
53282;DHT22;39167;52.794;6.892;2023-02-15T09:29:33;4.10;99.90
53282;DHT22;39167;52.794;6.892;2023-02-15T09:31:59;3.50;99.90
53282;DHT22;39167;52.794;6.892;2023-02-15T09:34:24;3.20;99.90
53282;DHT22;39167;52.794;6.892;2023-02-15T09:36:51;3.30;99.90
53282;DHT22;39167;52.794;6.892;2023-02-15T09:39:19;3.40;99.90
53282;DHT22;39167;52.794;6.892;2023-02-15T09:47:14;3.50;99.90
53282;DHT22;39167;52.794;6.892;2023-02-15T10:27:55;4.60;99.90
53282;DHT22;39167;52.794;6.892;2023-02-15T10:33:01;4.70;99.90
53282;DHT22;39167;52.794;6.892;2023-02-15T10:38:17;5.10;99.90
53282;DHT22;39167;52.794;6.892;2023-02-15T10:40:57;4.70;99.90
53282;DHT22;39167;52.794;6.892;2023-02-15T10:43:32;5.10;99.90
53282;DHT22;39167;52.794;6.892;2023-02-15T10:54:25;5.30;99.90
53282;DHT22;39167;52.794;6.892;2023-02-15T10:57:02;5.40;99.90
53282;DHT22;39167;52.794;6.892;2023-02-15T11:08:25;5.80;99.90
53282;DHT22;39167;52.794;6.892;2023-02-15T11:10:55;5.90;99.90
53282;DHT22;39167;52.794;6.892;2023-02-15T11:13:26;5.90;99.90
53282;DHT22;39167;52.794;6.892;2023-02-15T11:21:14;6.10;99.90
53282;DHT22;39167;52.794;6.892;2023-02-15T11:23:46;6.20;99.90
53282;DHT22;39167;52.794;6.892;2023-02-15T11:26:34;6.20;99.90
53282;DHT22;39167;52.794;6.892;2023-02-15T11:29:07;6.30;99.90
53282;DHT22;39167;52.794;6.892;2023-02-15T11:31:44;6.40;99.90
53282;DHT22;39167;52.794;6.892;2023-02-15T11:34:27;6.50;99.90
53282;DHT22;39167;52.794;6.892;2023-02-15T11:36:55;6.60;99.90
53282;DHT22;39167;52.794;6.892;2023-02-15T11:39:24;6.70;99.90
53282;DHT22;39167;52.794;6.892;2023-02-15T11:42:04;6.80;99.90
53282;DHT22;39167;52.794;6.892;2023-02-15T11:44:42;6.80;99.90
53282;DHT22;39167;52.794;6.892;2023-02-15T11:47:11;7.00;99.90
53282;DHT22;39167;52.794;6.892;2023-02-15T11:49:38;7.00;99.90
53282;DHT22;39167;52.794;6.892;2023-02-15T11:52:12;7.10;99.90
53282;DHT22;39167;52.794;6.892;2023-02-15T11:54:43;7.20;99.90
53282;DHT22;39167;52.794;6.892;2023-02-15T11:59:49;7.40;99.90
53282;DHT22;39167;52.794;6.892;2023-02-15T12:02:20;7.50;99.90
53282;DHT22;39167;52.794;6.892;2023-02-15T12:05:01;7.80;99.90
53282;DHT22;39167;52.794;6.892;2023-02-15T12:07:37;7.70;99.90
53282;DHT22;39167;52.794;6.892;2023-02-15T12:10:26;7.80;99.90
53282;DHT22;39167;52.794;6.892;2023-02-15T12:13:16;7.90;99.90
53282;DHT22;39167;52.794;6.892;2023-02-15T12:15:53;8.00;99.90
53282;DHT22;39167;52.794;6.892;2023-02-15T12:18:38;8.00;99.90
53282;DHT22;39167;52.794;6.892;2023-02-15T12:21:10;8.10;99.90
53282;DHT22;39167;52.794;6.892;2023-02-15T12:24:16;8.10;99.90
53282;DHT22;39167;52.794;6.892;2023-02-15T12:26:43;8.20;99.90
53282;DHT22;39167;52.794;6.892;2023-02-15T12:29:16;8.30;99.90
53282;DHT22;39167;52.794;6.892;2023-02-15T12:31:50;8.40;99.90
53282;DHT22;39167;52.794;6.892;2023-02-15T12:34:23;8.40;99.90
53282;DHT22;39167;52.794;6.892;2023-02-15T12:36:56;8.50;99.90
53282;DHT22;39167;52.794;6.892;2023-02-15T12:39:26;8.60;99.90
53282;DHT22;39167;52.794;6.892;2023-02-15T12:41:59;8.70;99.90
53282;DHT22;39167;52.794;6.892;2023-02-15T12:44:28;8.70;99.90
53282;DHT22;39167;52.794;6.892;2023-02-15T12:49:36;8.80;99.90
53282;DHT22;39167;52.794;6.892;2023-02-15T12:52:05;8.80;99.90
53282;DHT22;39167;52.794;6.892;2023-02-15T12:54:42;8.90;99.90
53282;DHT22;39167;52.794;6.892;2023-02-15T12:57:22;8.90;99.90
53282;DHT22;39167;52.794;6.892;2023-02-15T12:59:54;8.90;99.90
53282;DHT22;39167;52.794;6.892;2023-02-15T13:02:47;9.00;99.90
53282;DHT22;39167;52.794;6.892;2023-02-15T13:05:35;9.00;99.90
53282;DHT22;39167;52.794;6.892;2023-02-15T13:08:13;9.00;99.90
53282;DHT22;39167;52.794;6.892;2023-02-15T13:10:54;9.10;99.90
53282;DHT22;39167;52.794;6.892;2023-02-15T13:13:25;9.10;99.90
53282;DHT22;39167;52.794;6.892;2023-02-15T13:15:54;9.20;99.90
53282;DHT22;39167;52.794;6.892;2023-02-15T13:18:30;9.20;99.90
53282;DHT22;39167;52.794;6.892;2023-02-15T13:20:57;9.30;99.90
53282;DHT22;39167;52.794;6.892;2023-02-15T13:23:29;9.30;99.90
53282;DHT22;39167;52.794;6.892;2023-02-15T13:26:02;9.30;99.90
53282;DHT22;39167;52.794;6.892;2023-02-15T13:28:48;9.00;99.90
53282;DHT22;39167;52.794;6.892;2023-02-15T13:31:23;9.40;99.90
53282;DHT22;39167;52.794;6.892;2023-02-15T13:34:00;9.40;99.90
53282;DHT22;39167;52.794;6.892;2023-02-15T13:39:17;9.40;99.90
53282;DHT22;39167;52.794;6.892;2023-02-15T13:42:04;9.50;99.90
53282;DHT22;39167;52.794;6.892;2023-02-15T13:47:34;9.50;99.90
53282;DHT22;39167;52.794;6.892;2023-02-15T14:01:42;9.80;99.90
53282;DHT22;39167;52.794;6.892;2023-02-15T14:15:11;10.00;99.90
53282;DHT22;39167;52.794;6.892;2023-02-15T14:20:36;10.00;99.90
53282;DHT22;39167;52.794;6.892;2023-02-15T14:31:38;10.10;99.90
53282;DHT22;39167;52.794;6.892;2023-02-15T14:34:23;10.10;99.90
53282;DHT22;39167;52.794;6.892;2023-02-15T14:36:51;10.10;99.90
53282;DHT22;39167;52.794;6.892;2023-02-15T14:39:31;10.10;99.90
53282;DHT22;39167;52.794;6.892;2023-02-15T14:42:50;10.10;99.90
53282;DHT22;39167;52.794;6.892;2023-02-15T14:45:29;10.10;99.90
53282;DHT22;39167;52.794;6.892;2023-02-15T14:48:07;10.10;99.90
53282;DHT22;39167;52.794;6.892;2023-02-15T14:50:40;10.00;99.90
53282;DHT22;39167;52.794;6.892;2023-02-15T15:01:15;10.00;99.90
53282;DHT22;39167;52.794;6.892;2023-02-15T15:03:53;10.40;99.90
53282;DHT22;39167;52.794;6.892;2023-02-15T15:06:32;10.00;99.90
53282;DHT22;39167;52.794;6.892;2023-02-15T15:11:50;10.00;99.90
53282;DHT22;39167;52.794;6.892;2023-02-15T15:17:01;10.00;99.90
53282;DHT22;39167;52.794;6.892;2023-02-15T15:22:30;10.00;99.90
53282;DHT22;39167;52.794;6.892;2023-02-15T15:24:58;9.90;99.90
53282;DHT22;39167;52.794;6.892;2023-02-15T15:27:38;9.90;99.90
53282;DHT22;39167;52.794;6.892;2023-02-15T15:35:33;9.90;99.90
53282;DHT22;39167;52.794;6.892;2023-02-15T15:49:37;9.80;99.90
53282;DHT22;39167;52.794;6.892;2023-02-15T15:52:18;9.80;99.90
53282;DHT22;39167;52.794;6.892;2023-02-15T15:54:47;9.80;99.90
53282;DHT22;39167;52.794;6.892;2023-02-15T15:57:30;9.70;99.90
53282;DHT22;39167;52.794;6.892;2023-02-15T15:59:57;9.70;99.90
53282;DHT22;39167;52.794;6.892;2023-02-15T16:02:26;9.70;99.90
53282;DHT22;39167;52.794;6.892;2023-02-15T16:04:52;9.70;99.90
53282;DHT22;39167;52.794;6.892;2023-02-15T16:10:03;9.60;99.90
53282;DHT22;39167;52.794;6.892;2023-02-15T16:12:32;9.60;99.90
53282;DHT22;39167;52.794;6.892;2023-02-15T16:15:02;9.60;99.90
53282;DHT22;39167;52.794;6.892;2023-02-15T16:17:32;9.50;99.90
53282;DHT22;39167;52.794;6.892;2023-02-15T16:20:23;9.50;99.90
53282;DHT22;39167;52.794;6.892;2023-02-15T16:22:53;9.50;99.90
53282;DHT22;39167;52.794;6.892;2023-02-15T16:25:35;9.50;99.90
53282;DHT22;39167;52.794;6.892;2023-02-15T16:28:08;9.40;99.90
53282;DHT22;39167;52.794;6.892;2023-02-15T16:30:36;9.40;99.90
53282;DHT22;39167;52.794;6.892;2023-02-15T16:33:07;9.40;99.90
53282;DHT22;39167;52.794;6.892;2023-02-15T16:35:35;9.30;99.90
53282;DHT22;39167;52.794;6.892;2023-02-15T16:38:02;9.30;99.90
53282;DHT22;39167;52.794;6.892;2023-02-15T16:40:35;9.30;99.90
53282;DHT22;39167;52.794;6.892;2023-02-15T16:43:06;9.30;99.90
53282;DHT22;39167;52.794;6.892;2023-02-15T16:45:36;9.20;99.90
53282;DHT22;39167;52.794;6.892;2023-02-15T16:48:08;8.90;99.90
53282;DHT22;39167;52.794;6.892;2023-02-15T16:50:39;9.20;99.90
53282;DHT22;39167;52.794;6.892;2023-02-15T16:53:07;9.20;99.90
53282;DHT22;39167;52.794;6.892;2023-02-15T16:55:40;9.10;99.90
53282;DHT22;39167;52.794;6.892;2023-02-15T16:58:12;9.10;99.90
53282;DHT22;39167;52.794;6.892;2023-02-15T17:00:39;9.00;99.90
53282;DHT22;39167;52.794;6.892;2023-02-15T17:08:26;8.90;99.90
53282;DHT22;39167;52.794;6.892;2023-02-15T17:13:25;8.90;99.90
53282;DHT22;39167;52.794;6.892;2023-02-15T17:18:28;8.90;99.90
53282;DHT22;39167;52.794;6.892;2023-02-15T17:20:56;8.80;99.90
53282;DHT22;39167;52.794;6.892;2023-02-15T17:23:32;8.80;99.90
53282;DHT22;39167;52.794;6.892;2023-02-15T17:26:00;8.70;99.90
53282;DHT22;39167;52.794;6.892;2023-02-15T17:28:29;8.70;99.90
53282;DHT22;39167;52.794;6.892;2023-02-15T17:30:57;8.70;99.90
53282;DHT22;39167;52.794;6.892;2023-02-15T17:33:41;8.70;99.90
53282;DHT22;39167;52.794;6.892;2023-02-15T17:36:13;8.60;99.90
53282;DHT22;39167;52.794;6.892;2023-02-15T17:39:06;8.60;99.90
53282;DHT22;39167;52.794;6.892;2023-02-15T17:41:43;8.60;99.90
53282;DHT22;39167;52.794;6.892;2023-02-15T17:44:09;8.50;99.90
53282;DHT22;39167;52.794;6.892;2023-02-15T17:46:39;8.50;99.90
53282;DHT22;39167;52.794;6.892;2023-02-15T17:49:05;8.40;99.90
53282;DHT22;39167;52.794;6.892;2023-02-15T17:51:31;8.40;99.90
53282;DHT22;39167;52.794;6.892;2023-02-15T17:54:00;8.40;99.90
53282;DHT22;39167;52.794;6.892;2023-02-15T17:56:44;8.30;99.90
53282;DHT22;39167;52.794;6.892;2023-02-15T17:59:10;8.30;99.90
53282;DHT22;39167;52.794;6.892;2023-02-15T18:01:47;8.30;99.90
53282;DHT22;39167;52.794;6.892;2023-02-15T18:04:33;8.30;99.90
53282;DHT22;39167;52.794;6.892;2023-02-15T18:07:18;8.30;99.90
53282;DHT22;39167;52.794;6.892;2023-02-15T18:10:15;8.20;99.90
53282;DHT22;39167;52.794;6.892;2023-02-15T18:12:59;8.20;99.90
53282;DHT22;39167;52.794;6.892;2023-02-15T18:15:26;8.20;99.90
53282;DHT22;39167;52.794;6.892;2023-02-15T18:17:52;8.10;99.90
53282;DHT22;39167;52.794;6.892;2023-02-15T18:20:21;8.10;99.90
53282;DHT22;39167;52.794;6.892;2023-02-15T18:22:50;8.10;99.90
53282;DHT22;39167;52.794;6.892;2023-02-15T18:25:18;8.10;99.90
53282;DHT22;39167;52.794;6.892;2023-02-15T18:27:44;8.10;99.90
53282;DHT22;39167;52.794;6.892;2023-02-15T18:30:15;8.10;99.90
53282;DHT22;39167;52.794;6.892;2023-02-15T18:32:41;8.10;99.90
53282;DHT22;39167;52.794;6.892;2023-02-15T18:35:13;8.00;99.90
53282;DHT22;39167;52.794;6.892;2023-02-15T18:37:39;8.00;99.90
53282;DHT22;39167;52.794;6.892;2023-02-15T18:40:12;8.00;99.90
53282;DHT22;39167;52.794;6.892;2023-02-15T18:42:38;8.00;99.90
53282;DHT22;39167;52.794;6.892;2023-02-15T18:45:21;8.00;99.90
53282;DHT22;39167;52.794;6.892;2023-02-15T18:47:49;8.00;99.90
53282;DHT22;39167;52.794;6.892;2023-02-15T18:50:18;7.90;99.90
53282;DHT22;39167;52.794;6.892;2023-02-15T18:52:46;7.90;99.90
53282;DHT22;39167;52.794;6.892;2023-02-15T18:57:44;7.90;99.90
53282;DHT22;39167;52.794;6.892;2023-02-15T19:02:41;7.90;99.90
53282;DHT22;39167;52.794;6.892;2023-02-15T19:05:06;7.80;99.90
53282;DHT22;39167;52.794;6.892;2023-02-15T19:07:34;7.80;99.90
53282;DHT22;39167;52.794;6.892;2023-02-15T19:10:01;7.80;99.90
53282;DHT22;39167;52.794;6.892;2023-02-15T19:12:29;7.70;99.90
53282;DHT22;39167;52.794;6.892;2023-02-15T19:14:54;7.80;99.90
53282;DHT22;39167;52.794;6.892;2023-02-15T19:17:22;7.70;99.90
53282;DHT22;39167;52.794;6.892;2023-02-15T19:19:50;7.70;99.90